sensor_id;sensor_type;location;lat;lon;timestamp;P1;durP1;ratioP1;P2;durP2;ratioP2
72235;SDS011;60146;52.498;13.462;2023-04-29T00:02:15;10.63;;;5.00;;
72235;SDS011;60146;52.498;13.462;2023-04-29T00:04:40;9.47;;;4.80;;
72235;SDS011;60146;52.498;13.462;2023-04-29T00:07:06;7.13;;;4.67;;
72235;SDS011;60146;52.498;13.462;2023-04-29T00:09:32;7.33;;;4.50;;
72235;SDS011;60146;52.498;13.462;2023-04-29T00:11:58;13.50;;;5.07;;
72235;SDS011;60146;52.498;13.462;2023-04-29T00:14:23;9.73;;;4.50;;
72235;SDS011;60146;52.498;13.462;2023-04-29T00:16:48;10.40;;;4.67;;
72235;SDS011;60146;52.498;13.462;2023-04-29T00:19:14;8.83;;;4.93;;
72235;SDS011;60146;52.498;13.462;2023-04-29T00:21:40;7.23;;;4.63;;
72235;SDS011;60146;52.498;13.462;2023-04-29T00:24:05;8.73;;;4.70;;
72235;SDS011;60146;52.498;13.462;2023-04-29T00:26:31;8.70;;;5.00;;
72235;SDS011;60146;52.498;13.462;2023-04-29T00:28:56;11.27;;;6.00;;
72235;SDS011;60146;52.498;13.462;2023-04-29T00:31:21;7.27;;;4.80;;
72235;SDS011;60146;52.498;13.462;2023-04-29T00:33:47;8.30;;;5.00;;
72235;SDS011;60146;52.498;13.462;2023-04-29T00:36:13;7.80;;;5.00;;
72235;SDS011;60146;52.498;13.462;2023-04-29T00:38:38;9.20;;;4.90;;
72235;SDS011;60146;52.498;13.462;2023-04-29T00:41:03;8.03;;;4.67;;
72235;SDS011;60146;52.498;13.462;2023-04-29T00:43:29;13.33;;;5.93;;
72235;SDS011;60146;52.498;13.462;2023-04-29T00:46:00;9.37;;;5.10;;
72235;SDS011;60146;52.498;13.462;2023-04-29T00:48:25;8.17;;;4.43;;
72235;SDS011;60146;52.498;13.462;2023-04-29T00:50:50;8.37;;;5.10;;
72235;SDS011;60146;52.498;13.462;2023-04-29T00:53:17;12.37;;;5.67;;
72235;SDS011;60146;52.498;13.462;2023-04-29T00:55:43;6.73;;;4.63;;
72235;SDS011;60146;52.498;13.462;2023-04-29T00:58:10;11.77;;;5.37;;
72235;SDS011;60146;52.498;13.462;2023-04-29T01:00:36;10.77;;;5.90;;
72235;SDS011;60146;52.498;13.462;2023-04-29T01:03:02;10.17;;;5.13;;
72235;SDS011;60146;52.498;13.462;2023-04-29T01:05:29;8.77;;;4.83;;
72235;SDS011;60146;52.498;13.462;2023-04-29T01:10:40;8.00;;;4.57;;
72235;SDS011;60146;52.498;13.462;2023-04-29T01:13:41;8.65;;;4.55;;
72235;SDS011;60146;52.498;13.462;2023-04-29T01:16:36;11.23;;;5.37;;
72235;SDS011;60146;52.498;13.462;2023-04-29T01:19:01;12.00;;;5.67;;
72235;SDS011;60146;52.498;13.462;2023-04-29T01:21:47;10.00;;;4.90;;
72235;SDS011;60146;52.498;13.462;2023-04-29T01:24:14;12.60;;;5.93;;
72235;SDS011;60146;52.498;13.462;2023-04-29T01:26:41;11.73;;;6.93;;
72235;SDS011;60146;52.498;13.462;2023-04-29T01:31:51;8.20;;;4.87;;
72235;SDS011;60146;52.498;13.462;2023-04-29T01:34:43;10.60;;;5.83;;
72235;SDS011;60146;52.498;13.462;2023-04-29T01:37:17;8.97;;;5.90;;
72235;SDS011;60146;52.498;13.462;2023-04-29T01:39:57;10.33;;;5.63;;
72235;SDS011;60146;52.498;13.462;2023-04-29T01:42:43;9.97;;;6.13;;
72235;SDS011;60146;52.498;13.462;2023-04-29T01:45:09;11.20;;;5.57;;
72235;SDS011;60146;52.498;13.462;2023-04-29T01:47:38;9.67;;;5.80;;
72235;SDS011;60146;52.498;13.462;2023-04-29T01:50:05;10.50;;;6.30;;
72235;SDS011;60146;52.498;13.462;2023-04-29T01:52:31;12.67;;;6.63;;
72235;SDS011;60146;52.498;13.462;2023-04-29T01:54:56;11.53;;;6.50;;
72235;SDS011;60146;52.498;13.462;2023-04-29T01:57:21;11.17;;;7.10;;
72235;SDS011;60146;52.498;13.462;2023-04-29T01:59:47;13.57;;;7.10;;
72235;SDS011;60146;52.498;13.462;2023-04-29T02:02:12;15.67;;;7.23;;
72235;SDS011;60146;52.498;13.462;2023-04-29T02:04:39;12.97;;;6.93;;
72235;SDS011;60146;52.498;13.462;2023-04-29T02:07:04;13.13;;;6.70;;
72235;SDS011;60146;52.498;13.462;2023-04-29T02:09:30;13.63;;;6.70;;
72235;SDS011;60146;52.498;13.462;2023-04-29T02:11:55;14.17;;;7.17;;
72235;SDS011;60146;52.498;13.462;2023-04-29T02:14:21;11.30;;;7.03;;
72235;SDS011;60146;52.498;13.462;2023-04-29T02:16:49;13.53;;;7.17;;
72235;SDS011;60146;52.498;13.462;2023-04-29T02:19:14;13.63;;;7.07;;
72235;SDS011;60146;52.498;13.462;2023-04-29T02:21:43;14.83;;;6.77;;
72235;SDS011;60146;52.498;13.462;2023-04-29T02:24:09;13.50;;;7.13;;
72235;SDS011;60146;52.498;13.462;2023-04-29T02:26:35;12.37;;;6.87;;
72235;SDS011;60146;52.498;13.462;2023-04-29T02:29:02;13.30;;;7.40;;
72235;SDS011;60146;52.498;13.462;2023-04-29T02:31:27;10.90;;;6.90;;
72235;SDS011;60146;52.498;13.462;2023-04-29T02:33:53;12.90;;;7.70;;
72235;SDS011;60146;52.498;13.462;2023-04-29T02:36:18;17.73;;;8.57;;
72235;SDS011;60146;52.498;13.462;2023-04-29T02:38:44;14.77;;;7.90;;
72235;SDS011;60146;52.498;13.462;2023-04-29T02:41:09;16.23;;;7.77;;
72235;SDS011;60146;52.498;13.462;2023-04-29T02:43:35;18.87;;;8.87;;
72235;SDS011;60146;52.498;13.462;2023-04-29T02:46:00;15.57;;;8.03;;
72235;SDS011;60146;52.498;13.462;2023-04-29T02:48:26;15.70;;;8.30;;
72235;SDS011;60146;52.498;13.462;2023-04-29T02:50:51;15.70;;;7.77;;
72235;SDS011;60146;52.498;13.462;2023-04-29T02:53:17;15.77;;;8.33;;
72235;SDS011;60146;52.498;13.462;2023-04-29T02:55:42;14.83;;;8.00;;
72235;SDS011;60146;52.498;13.462;2023-04-29T02:58:08;12.50;;;7.67;;
72235;SDS011;60146;52.498;13.462;2023-04-29T03:00:33;15.37;;;8.50;;
72235;SDS011;60146;52.498;13.462;2023-04-29T03:02:59;16.67;;;8.20;;
72235;SDS011;60146;52.498;13.462;2023-04-29T03:05:24;16.40;;;8.87;;
72235;SDS011;60146;52.498;13.462;2023-04-29T03:07:49;15.67;;;8.90;;
72235;SDS011;60146;52.498;13.462;2023-04-29T03:10:16;13.40;;;8.13;;
72235;SDS011;60146;52.498;13.462;2023-04-29T03:12:43;16.60;;;9.07;;
72235;SDS011;60146;52.498;13.462;2023-04-29T03:15:08;15.43;;;9.30;;
72235;SDS011;60146;52.498;13.462;2023-04-29T03:17:34;14.27;;;8.30;;
72235;SDS011;60146;52.498;13.462;2023-04-29T03:20:00;17.23;;;8.43;;
72235;SDS011;60146;52.498;13.462;2023-04-29T03:22:26;15.40;;;8.90;;
72235;SDS011;60146;52.498;13.462;2023-04-29T03:24:51;16.03;;;8.77;;
72235;SDS011;60146;52.498;13.462;2023-04-29T03:27:16;17.00;;;9.40;;
72235;SDS011;60146;52.498;13.462;2023-04-29T03:29:42;18.57;;;9.47;;
72235;SDS011;60146;52.498;13.462;2023-04-29T03:32:07;16.67;;;10.10;;
72235;SDS011;60146;52.498;13.462;2023-04-29T03:34:32;17.77;;;9.47;;
72235;SDS011;60146;52.498;13.462;2023-04-29T03:36:58;17.53;;;9.67;;
72235;SDS011;60146;52.498;13.462;2023-04-29T03:39:23;18.87;;;10.17;;
72235;SDS011;60146;52.498;13.462;2023-04-29T03:41:49;17.83;;;9.83;;
72235;SDS011;60146;52.498;13.462;2023-04-29T03:44:15;18.80;;;10.33;;
72235;SDS011;60146;52.498;13.462;2023-04-29T03:46:40;17.50;;;9.93;;
72235;SDS011;60146;52.498;13.462;2023-04-29T03:49:05;20.87;;;10.20;;
72235;SDS011;60146;52.498;13.462;2023-04-29T03:51:31;18.07;;;10.13;;
72235;SDS011;60146;52.498;13.462;2023-04-29T03:53:56;21.03;;;10.70;;
72235;SDS011;60146;52.498;13.462;2023-04-29T03:56:23;21.03;;;11.30;;
72235;SDS011;60146;52.498;13.462;2023-04-29T03:58:50;18.93;;;10.40;;
72235;SDS011;60146;52.498;13.462;2023-04-29T04:01:15;20.43;;;10.30;;
72235;SDS011;60146;52.498;13.462;2023-04-29T04:03:41;20.43;;;10.90;;
72235;SDS011;60146;52.498;13.462;2023-04-29T04:06:07;17.30;;;9.77;;
72235;SDS011;60146;52.498;13.462;2023-04-29T04:08:32;20.30;;;10.47;;
72235;SDS011;60146;52.498;13.462;2023-04-29T04:10:58;20.60;;;10.93;;
72235;SDS011;60146;52.498;13.462;2023-04-29T04:13:27;21.70;;;11.03;;
72235;SDS011;60146;52.498;13.462;2023-04-29T04:15:53;23.20;;;11.80;;
72235;SDS011;60146;52.498;13.462;2023-04-29T04:18:18;21.43;;;11.37;;
72235;SDS011;60146;52.498;13.462;2023-04-29T04:20:44;21.93;;;11.53;;
72235;SDS011;60146;52.498;13.462;2023-04-29T04:23:09;20.57;;;11.50;;
72235;SDS011;60146;52.498;13.462;2023-04-29T04:25:34;23.40;;;11.93;;
72235;SDS011;60146;52.498;13.462;2023-04-29T04:28:00;21.63;;;11.93;;
72235;SDS011;60146;52.498;13.462;2023-04-29T04:30:26;23.47;;;12.30;;
72235;SDS011;60146;52.498;13.462;2023-04-29T04:32:51;24.87;;;11.77;;
72235;SDS011;60146;52.498;13.462;2023-04-29T04:35:16;24.53;;;12.33;;
72235;SDS011;60146;52.498;13.462;2023-04-29T04:37:42;25.37;;;12.70;;
72235;SDS011;60146;52.498;13.462;2023-04-29T04:40:07;26.03;;;12.30;;
72235;SDS011;60146;52.498;13.462;2023-04-29T04:42:33;25.80;;;12.37;;
72235;SDS011;60146;52.498;13.462;2023-04-29T04:44:58;27.10;;;13.07;;
72235;SDS011;60146;52.498;13.462;2023-04-29T04:47:23;24.70;;;12.40;;
72235;SDS011;60146;52.498;13.462;2023-04-29T04:49:49;24.63;;;12.23;;
72235;SDS011;60146;52.498;13.462;2023-04-29T04:52:18;23.03;;;11.90;;
72235;SDS011;60146;52.498;13.462;2023-04-29T04:54:45;24.43;;;13.47;;
72235;SDS011;60146;52.498;13.462;2023-04-29T04:57:10;28.10;;;13.87;;
72235;SDS011;60146;52.498;13.462;2023-04-29T04:59:35;25.73;;;12.87;;
72235;SDS011;60146;52.498;13.462;2023-04-29T05:02:01;26.37;;;13.33;;
72235;SDS011;60146;52.498;13.462;2023-04-29T05:04:26;25.47;;;12.77;;
72235;SDS011;60146;52.498;13.462;2023-04-29T05:06:51;26.50;;;12.50;;
72235;SDS011;60146;52.498;13.462;2023-04-29T05:09:17;29.17;;;13.57;;
72235;SDS011;60146;52.498;13.462;2023-04-29T05:11:42;31.33;;;13.77;;
72235;SDS011;60146;52.498;13.462;2023-04-29T05:14:07;27.50;;;13.20;;
72235;SDS011;60146;52.498;13.462;2023-04-29T05:16:32;31.03;;;13.90;;
72235;SDS011;60146;52.498;13.462;2023-04-29T05:18:58;26.60;;;13.40;;
72235;SDS011;60146;52.498;13.462;2023-04-29T05:21:23;29.00;;;13.87;;
72235;SDS011;60146;52.498;13.462;2023-04-29T05:23:48;31.07;;;14.50;;
72235;SDS011;60146;52.498;13.462;2023-04-29T05:26:14;29.27;;;15.13;;
72235;SDS011;60146;52.498;13.462;2023-04-29T05:28:39;32.17;;;14.93;;
72235;SDS011;60146;52.498;13.462;2023-04-29T05:31:05;30.00;;;13.87;;
72235;SDS011;60146;52.498;13.462;2023-04-29T05:33:30;29.27;;;14.37;;
72235;SDS011;60146;52.498;13.462;2023-04-29T05:35:55;31.47;;;14.67;;
72235;SDS011;60146;52.498;13.462;2023-04-29T05:38:21;34.17;;;14.37;;
72235;SDS011;60146;52.498;13.462;2023-04-29T05:40:52;34.93;;;14.60;;
72235;SDS011;60146;52.498;13.462;2023-04-29T05:43:18;30.47;;;14.40;;
72235;SDS011;60146;52.498;13.462;2023-04-29T05:45:45;33.23;;;15.53;;
72235;SDS011;60146;52.498;13.462;2023-04-29T05:48:11;31.97;;;15.10;;
72235;SDS011;60146;52.498;13.462;2023-04-29T05:50:36;32.83;;;14.30;;
72235;SDS011;60146;52.498;13.462;2023-04-29T05:53:01;31.87;;;15.03;;
72235;SDS011;60146;52.498;13.462;2023-04-29T05:55:27;32.23;;;14.33;;
72235;SDS011;60146;52.498;13.462;2023-04-29T05:57:52;31.97;;;14.67;;
72235;SDS011;60146;52.498;13.462;2023-04-29T06:00:17;30.40;;;13.87;;
72235;SDS011;60146;52.498;13.462;2023-04-29T06:02:43;32.73;;;14.37;;
72235;SDS011;60146;52.498;13.462;2023-04-29T06:05:09;32.27;;;14.40;;
72235;SDS011;60146;52.498;13.462;2023-04-29T06:07:35;34.97;;;15.33;;
72235;SDS011;60146;52.498;13.462;2023-04-29T06:10:00;31.63;;;14.13;;
72235;SDS011;60146;52.498;13.462;2023-04-29T06:12:26;33.30;;;15.03;;
72235;SDS011;60146;52.498;13.462;2023-04-29T06:14:51;30.37;;;14.07;;
72235;SDS011;60146;52.498;13.462;2023-04-29T06:17:17;30.43;;;13.60;;
72235;SDS011;60146;52.498;13.462;2023-04-29T06:19:42;31.87;;;14.10;;
72235;SDS011;60146;52.498;13.462;2023-04-29T06:22:07;31.03;;;13.97;;
72235;SDS011;60146;52.498;13.462;2023-04-29T06:24:32;31.90;;;13.67;;
72235;SDS011;60146;52.498;13.462;2023-04-29T06:26:58;31.33;;;14.20;;
72235;SDS011;60146;52.498;13.462;2023-04-29T06:29:23;31.80;;;14.27;;
72235;SDS011;60146;52.498;13.462;2023-04-29T06:31:48;31.97;;;14.13;;
72235;SDS011;60146;52.498;13.462;2023-04-29T06:34:14;30.27;;;13.33;;
72235;SDS011;60146;52.498;13.462;2023-04-29T06:36:39;30.07;;;14.07;;
72235;SDS011;60146;52.498;13.462;2023-04-29T06:39:05;28.87;;;12.67;;
72235;SDS011;60146;52.498;13.462;2023-04-29T06:41:31;32.20;;;13.53;;
72235;SDS011;60146;52.498;13.462;2023-04-29T06:43:56;31.13;;;13.07;;
72235;SDS011;60146;52.498;13.462;2023-04-29T06:46:21;29.83;;;13.03;;
72235;SDS011;60146;52.498;13.462;2023-04-29T06:48:47;28.43;;;12.00;;
72235;SDS011;60146;52.498;13.462;2023-04-29T06:51:12;26.70;;;11.37;;
72235;SDS011;60146;52.498;13.462;2023-04-29T06:53:37;25.93;;;11.23;;
72235;SDS011;60146;52.498;13.462;2023-04-29T06:56:03;25.97;;;12.07;;
72235;SDS011;60146;52.498;13.462;2023-04-29T06:58:29;24.47;;;11.20;;
72235;SDS011;60146;52.498;13.462;2023-04-29T07:00:55;21.67;;;10.20;;
72235;SDS011;60146;52.498;13.462;2023-04-29T07:03:20;22.23;;;10.50;;
72235;SDS011;60146;52.498;13.462;2023-04-29T07:05:45;21.87;;;10.23;;
72235;SDS011;60146;52.498;13.462;2023-04-29T07:08:11;24.03;;;9.47;;
72235;SDS011;60146;52.498;13.462;2023-04-29T07:10:37;20.20;;;9.17;;
72235;SDS011;60146;52.498;13.462;2023-04-29T07:13:03;18.10;;;9.67;;
72235;SDS011;60146;52.498;13.462;2023-04-29T07:15:29;18.33;;;8.97;;
72235;SDS011;60146;52.498;13.462;2023-04-29T07:17:55;19.47;;;9.53;;
72235;SDS011;60146;52.498;13.462;2023-04-29T07:20:20;18.30;;;8.73;;
72235;SDS011;60146;52.498;13.462;2023-04-29T07:22:46;18.30;;;8.43;;
72235;SDS011;60146;52.498;13.462;2023-04-29T07:25:12;21.30;;;9.83;;
72235;SDS011;60146;52.498;13.462;2023-04-29T07:27:38;19.03;;;9.20;;
72235;SDS011;60146;52.498;13.462;2023-04-29T07:30:03;18.40;;;8.83;;
72235;SDS011;60146;52.498;13.462;2023-04-29T07:32:30;22.00;;;9.23;;
72235;SDS011;60146;52.498;13.462;2023-04-29T07:34:55;18.20;;;8.83;;
72235;SDS011;60146;52.498;13.462;2023-04-29T07:37:21;21.90;;;10.00;;
72235;SDS011;60146;52.498;13.462;2023-04-29T07:39:46;21.20;;;9.83;;
72235;SDS011;60146;52.498;13.462;2023-04-29T07:42:12;18.50;;;8.50;;
72235;SDS011;60146;52.498;13.462;2023-04-29T07:44:37;18.70;;;8.87;;
72235;SDS011;60146;52.498;13.462;2023-04-29T07:47:03;17.80;;;8.37;;
72235;SDS011;60146;52.498;13.462;2023-04-29T07:49:28;15.63;;;7.70;;
72235;SDS011;60146;52.498;13.462;2023-04-29T07:51:54;16.33;;;8.77;;
72235;SDS011;60146;52.498;13.462;2023-04-29T07:54:19;18.97;;;9.00;;
72235;SDS011;60146;52.498;13.462;2023-04-29T07:56:46;18.23;;;10.33;;
72235;SDS011;60146;52.498;13.462;2023-04-29T07:59:11;20.23;;;8.93;;
72235;SDS011;60146;52.498;13.462;2023-04-29T08:01:37;17.17;;;8.67;;
72235;SDS011;60146;52.498;13.462;2023-04-29T08:04:04;17.07;;;8.50;;
72235;SDS011;60146;52.498;13.462;2023-04-29T08:06:29;16.43;;;8.57;;
72235;SDS011;60146;52.498;13.462;2023-04-29T08:08:55;13.83;;;7.83;;
72235;SDS011;60146;52.498;13.462;2023-04-29T08:11:21;14.40;;;7.10;;
72235;SDS011;60146;52.498;13.462;2023-04-29T08:13:48;15.93;;;7.77;;
72235;SDS011;60146;52.498;13.462;2023-04-29T08:16:14;14.33;;;7.93;;
72235;SDS011;60146;52.498;13.462;2023-04-29T08:18:40;13.90;;;7.70;;
72235;SDS011;60146;52.498;13.462;2023-04-29T08:21:05;14.83;;;8.10;;
72235;SDS011;60146;52.498;13.462;2023-04-29T08:23:31;12.80;;;7.90;;
72235;SDS011;60146;52.498;13.462;2023-04-29T08:25:57;13.10;;;7.33;;
72235;SDS011;60146;52.498;13.462;2023-04-29T08:28:22;14.87;;;8.23;;
72235;SDS011;60146;52.498;13.462;2023-04-29T08:30:47;15.37;;;7.80;;
72235;SDS011;60146;52.498;13.462;2023-04-29T08:33:13;13.33;;;7.90;;
72235;SDS011;60146;52.498;13.462;2023-04-29T08:35:39;13.67;;;7.47;;
72235;SDS011;60146;52.498;13.462;2023-04-29T08:38:06;13.33;;;7.37;;
72235;SDS011;60146;52.498;13.462;2023-04-29T08:40:40;14.53;;;7.70;;
72235;SDS011;60146;52.498;13.462;2023-04-29T08:43:07;13.37;;;7.50;;
72235;SDS011;60146;52.498;13.462;2023-04-29T08:45:34;11.43;;;7.40;;
72235;SDS011;60146;52.498;13.462;2023-04-29T08:48:01;12.97;;;7.27;;
72235;SDS011;60146;52.498;13.462;2023-04-29T08:50:27;14.27;;;7.80;;
72235;SDS011;60146;52.498;13.462;2023-04-29T08:52:54;18.30;;;8.30;;
72235;SDS011;60146;52.498;13.462;2023-04-29T08:55:20;15.73;;;8.20;;
72235;SDS011;60146;52.498;13.462;2023-04-29T08:57:45;16.13;;;8.53;;
72235;SDS011;60146;52.498;13.462;2023-04-29T09:00:14;14.20;;;8.23;;
72235;SDS011;60146;52.498;13.462;2023-04-29T09:02:42;15.80;;;8.37;;
72235;SDS011;60146;52.498;13.462;2023-04-29T09:07:36;15.03;;;8.13;;
72235;SDS011;60146;52.498;13.462;2023-04-29T09:10:05;14.17;;;7.90;;
72235;SDS011;60146;52.498;13.462;2023-04-29T09:12:33;14.17;;;7.97;;
72235;SDS011;60146;52.498;13.462;2023-04-29T09:15:00;21.03;;;9.43;;
72235;SDS011;60146;52.498;13.462;2023-04-29T09:17:42;17.63;;;8.50;;
72235;SDS011;60146;52.498;13.462;2023-04-29T09:22:50;22.33;;;9.67;;
72235;SDS011;60146;52.498;13.462;2023-04-29T09:25:20;20.57;;;9.97;;
72235;SDS011;60146;52.498;13.462;2023-04-29T09:27:46;20.97;;;10.57;;
72235;SDS011;60146;52.498;13.462;2023-04-29T09:30:11;22.20;;;10.57;;
72235;SDS011;60146;52.498;13.462;2023-04-29T09:32:37;22.00;;;10.87;;
72235;SDS011;60146;52.498;13.462;2023-04-29T09:35:22;26.93;;;12.67;;
72235;SDS011;60146;52.498;13.462;2023-04-29T09:37:49;24.27;;;10.97;;
72235;SDS011;60146;52.498;13.462;2023-04-29T09:40:30;24.70;;;11.57;;
72235;SDS011;60146;52.498;13.462;2023-04-29T09:42:57;27.95;;;11.77;;
72235;SDS011;60146;52.498;13.462;2023-04-29T09:45:35;30.17;;;13.43;;
72235;SDS011;60146;52.498;13.462;2023-04-29T09:48:05;29.70;;;13.30;;
72235;SDS011;60146;52.498;13.462;2023-04-29T09:52:58;25.03;;;11.40;;
72235;SDS011;60146;52.498;13.462;2023-04-29T09:55:24;27.33;;;12.37;;
72235;SDS011;60146;52.498;13.462;2023-04-29T09:57:50;28.20;;;12.33;;
72235;SDS011;60146;52.498;13.462;2023-04-29T10:00:16;30.10;;;13.70;;
72235;SDS011;60146;52.498;13.462;2023-04-29T10:02:44;27.80;;;13.43;;
72235;SDS011;60146;52.498;13.462;2023-04-29T10:05:11;29.63;;;13.13;;
72235;SDS011;60146;52.498;13.462;2023-04-29T10:07:38;32.07;;;13.83;;
72235;SDS011;60146;52.498;13.462;2023-04-29T10:10:04;33.30;;;14.37;;
72235;SDS011;60146;52.498;13.462;2023-04-29T10:12:32;35.30;;;16.13;;
72235;SDS011;60146;52.498;13.462;2023-04-29T10:15:03;36.60;;;16.37;;
72235;SDS011;60146;52.498;13.462;2023-04-29T10:20:12;45.57;;;19.47;;
72235;SDS011;60146;52.498;13.462;2023-04-29T10:25:13;42.47;;;17.97;;
72235;SDS011;60146;52.498;13.462;2023-04-29T10:27:41;41.43;;;18.37;;
72235;SDS011;60146;52.498;13.462;2023-04-29T10:30:09;47.93;;;20.07;;
72235;SDS011;60146;52.498;13.462;2023-04-29T10:32:38;45.93;;;19.67;;
72235;SDS011;60146;52.498;13.462;2023-04-29T10:35:08;40.40;;;18.87;;
72235;SDS011;60146;52.498;13.462;2023-04-29T10:37:35;46.37;;;19.63;;
72235;SDS011;60146;52.498;13.462;2023-04-29T10:40:14;43.57;;;19.23;;
72235;SDS011;60146;52.498;13.462;2023-04-29T10:42:46;41.73;;;19.10;;
72235;SDS011;60146;52.498;13.462;2023-04-29T10:45:20;40.63;;;18.50;;
72235;SDS011;60146;52.498;13.462;2023-04-29T10:50:33;38.73;;;17.60;;
72235;SDS011;60146;52.498;13.462;2023-04-29T10:53:04;44.23;;;18.63;;
72235;SDS011;60146;52.498;13.462;2023-04-29T10:55:29;35.07;;;18.73;;
72235;SDS011;60146;52.498;13.462;2023-04-29T10:57:55;39.23;;;17.50;;
72235;SDS011;60146;52.498;13.462;2023-04-29T11:00:22;38.87;;;18.47;;
72235;SDS011;60146;52.498;13.462;2023-04-29T11:02:52;39.60;;;18.20;;
72235;SDS011;60146;52.498;13.462;2023-04-29T11:05:18;33.63;;;17.23;;
72235;SDS011;60146;52.498;13.462;2023-04-29T11:08:07;32.70;;;16.33;;
72235;SDS011;60146;52.498;13.462;2023-04-29T11:10:36;31.80;;;16.27;;
72235;SDS011;60146;52.498;13.462;2023-04-29T11:15:50;30.17;;;15.27;;
72235;SDS011;60146;52.498;13.462;2023-04-29T11:18:28;30.27;;;16.07;;
72235;SDS011;60146;52.498;13.462;2023-04-29T11:23:28;29.00;;;14.23;;
72235;SDS011;60146;52.498;13.462;2023-04-29T11:25:53;25.57;;;14.00;;
72235;SDS011;60146;52.498;13.462;2023-04-29T11:28:19;29.37;;;14.93;;
72235;SDS011;60146;52.498;13.462;2023-04-29T11:30:45;27.20;;;14.10;;
72235;SDS011;60146;52.498;13.462;2023-04-29T11:33:11;25.23;;;12.90;;
72235;SDS011;60146;52.498;13.462;2023-04-29T11:35:38;21.77;;;13.73;;
72235;SDS011;60146;52.498;13.462;2023-04-29T11:38:03;29.70;;;14.23;;
72235;SDS011;60146;52.498;13.462;2023-04-29T11:40:30;23.83;;;13.23;;
72235;SDS011;60146;52.498;13.462;2023-04-29T11:42:56;26.17;;;13.63;;
72235;SDS011;60146;52.498;13.462;2023-04-29T11:45:22;24.80;;;14.00;;
72235;SDS011;60146;52.498;13.462;2023-04-29T11:47:48;21.33;;;11.87;;
72235;SDS011;60146;52.498;13.462;2023-04-29T11:50:14;21.93;;;12.70;;
72235;SDS011;60146;52.498;13.462;2023-04-29T11:52:43;22.47;;;11.37;;
72235;SDS011;60146;52.498;13.462;2023-04-29T11:55:11;19.13;;;10.93;;
72235;SDS011;60146;52.498;13.462;2023-04-29T11:57:36;19.40;;;10.53;;
72235;SDS011;60146;52.498;13.462;2023-04-29T12:00:03;17.70;;;11.60;;
72235;SDS011;60146;52.498;13.462;2023-04-29T12:02:29;21.17;;;12.20;;
72235;SDS011;60146;52.498;13.462;2023-04-29T12:04:55;17.20;;;10.10;;
72235;SDS011;60146;52.498;13.462;2023-04-29T12:07:22;20.00;;;10.40;;
72235;SDS011;60146;52.498;13.462;2023-04-29T12:09:47;15.40;;;9.03;;
72235;SDS011;60146;52.498;13.462;2023-04-29T12:12:13;15.27;;;9.00;;
72235;SDS011;60146;52.498;13.462;2023-04-29T12:14:40;17.90;;;9.60;;
72235;SDS011;60146;52.498;13.462;2023-04-29T12:17:06;19.27;;;10.00;;
72235;SDS011;60146;52.498;13.462;2023-04-29T12:19:34;15.97;;;9.27;;
72235;SDS011;60146;52.498;13.462;2023-04-29T12:22:02;13.53;;;8.87;;
72235;SDS011;60146;52.498;13.462;2023-04-29T12:24:31;18.07;;;9.47;;
72235;SDS011;60146;52.498;13.462;2023-04-29T12:26:59;16.15;;;8.93;;
72235;SDS011;60146;52.498;13.462;2023-04-29T12:29:24;14.60;;;9.13;;
72235;SDS011;60146;52.498;13.462;2023-04-29T12:31:50;17.13;;;9.50;;
72235;SDS011;60146;52.498;13.462;2023-04-29T12:34:16;17.20;;;9.90;;
72235;SDS011;60146;52.498;13.462;2023-04-29T12:36:42;16.77;;;9.90;;
72235;SDS011;60146;52.498;13.462;2023-04-29T12:39:09;14.83;;;9.47;;
72235;SDS011;60146;52.498;13.462;2023-04-29T12:41:41;15.53;;;9.43;;
72235;SDS011;60146;52.498;13.462;2023-04-29T12:44:07;17.00;;;9.17;;
72235;SDS011;60146;52.498;13.462;2023-04-29T12:46:38;16.77;;;9.37;;
72235;SDS011;60146;52.498;13.462;2023-04-29T12:49:04;15.88;;;8.55;;
72235;SDS011;60146;52.498;13.462;2023-04-29T12:51:33;16.60;;;9.03;;
72235;SDS011;60146;52.498;13.462;2023-04-29T12:54:03;16.97;;;7.97;;
72235;SDS011;60146;52.498;13.462;2023-04-29T12:56:30;13.63;;;8.13;;
72235;SDS011;60146;52.498;13.462;2023-04-29T12:58:56;14.07;;;7.07;;
72235;SDS011;60146;52.498;13.462;2023-04-29T13:01:28;12.30;;;7.10;;
72235;SDS011;60146;52.498;13.462;2023-04-29T13:03:53;11.63;;;7.40;;
72235;SDS011;60146;52.498;13.462;2023-04-29T13:06:19;12.47;;;6.77;;
72235;SDS011;60146;52.498;13.462;2023-04-29T13:08:44;11.43;;;6.33;;
72235;SDS011;60146;52.498;13.462;2023-04-29T13:11:09;11.87;;;6.50;;
72235;SDS011;60146;52.498;13.462;2023-04-29T13:13:37;11.30;;;6.00;;
72235;SDS011;60146;52.498;13.462;2023-04-29T13:16:02;9.97;;;5.90;;
72235;SDS011;60146;52.498;13.462;2023-04-29T13:18:28;9.17;;;5.10;;
72235;SDS011;60146;52.498;13.462;2023-04-29T13:20:53;8.13;;;5.50;;
72235;SDS011;60146;52.498;13.462;2023-04-29T13:23:19;10.10;;;5.53;;
72235;SDS011;60146;52.498;13.462;2023-04-29T13:25:44;8.17;;;5.07;;
72235;SDS011;60146;52.498;13.462;2023-04-29T13:28:10;7.80;;;4.83;;
72235;SDS011;60146;52.498;13.462;2023-04-29T13:30:35;8.63;;;5.20;;
72235;SDS011;60146;52.498;13.462;2023-04-29T13:33:01;9.60;;;5.25;;
72235;SDS011;60146;52.498;13.462;2023-04-29T13:35:26;8.30;;;4.63;;
72235;SDS011;60146;52.498;13.462;2023-04-29T13:37:51;7.87;;;4.60;;
72235;SDS011;60146;52.498;13.462;2023-04-29T13:40:17;6.97;;;4.32;;
72235;SDS011;60146;52.498;13.462;2023-04-29T13:42:42;7.85;;;4.78;;
72235;SDS011;60146;52.498;13.462;2023-04-29T13:45:08;6.78;;;4.00;;
72235;SDS011;60146;52.498;13.462;2023-04-29T13:47:35;7.53;;;4.10;;
72235;SDS011;60146;52.498;13.462;2023-04-29T13:50:00;6.43;;;4.07;;
72235;SDS011;60146;52.498;13.462;2023-04-29T13:52:26;8.10;;;4.20;;
72235;SDS011;60146;52.498;13.462;2023-04-29T13:54:54;6.57;;;4.45;;
72235;SDS011;60146;52.498;13.462;2023-04-29T13:57:20;9.57;;;4.43;;
72235;SDS011;60146;52.498;13.462;2023-04-29T13:59:48;7.63;;;4.40;;
72235;SDS011;60146;52.498;13.462;2023-04-29T14:02:18;8.48;;;4.78;;
72235;SDS011;60146;52.498;13.462;2023-04-29T14:04:44;8.68;;;4.55;;
72235;SDS011;60146;52.498;13.462;2023-04-29T14:07:09;8.55;;;4.85;;
72235;SDS011;60146;52.498;13.462;2023-04-29T14:09:35;7.75;;;5.00;;
72235;SDS011;60146;52.498;13.462;2023-04-29T14:12:00;10.52;;;5.15;;
72235;SDS011;60146;52.498;13.462;2023-04-29T14:14:26;11.50;;;5.32;;
72235;SDS011;60146;52.498;13.462;2023-04-29T14:16:51;8.23;;;5.30;;
72235;SDS011;60146;52.498;13.462;2023-04-29T14:19:50;10.23;;;5.07;;
72235;SDS011;60146;52.498;13.462;2023-04-29T14:22:14;11.93;;;5.55;;
72235;SDS011;60146;52.498;13.462;2023-04-29T14:24:40;9.07;;;5.68;;
72235;SDS011;60146;52.498;13.462;2023-04-29T14:27:05;12.43;;;6.00;;
72235;SDS011;60146;52.498;13.462;2023-04-29T14:29:31;9.82;;;5.45;;
72235;SDS011;60146;52.498;13.462;2023-04-29T14:31:56;8.75;;;5.28;;
72235;SDS011;60146;52.498;13.462;2023-04-29T14:34:21;10.02;;;5.97;;
72235;SDS011;60146;52.498;13.462;2023-04-29T14:36:47;11.30;;;5.33;;
72235;SDS011;60146;52.498;13.462;2023-04-29T14:39:12;27.87;;;11.40;;
72235;SDS011;60146;52.498;13.462;2023-04-29T14:41:37;10.35;;;5.25;;
72235;SDS011;60146;52.498;13.462;2023-04-29T14:44:03;10.38;;;5.53;;